Time;durP1;ratioP1;P1;durP2;ratioP2;P2;SDS_P1;SDS_P2;PMS_P1;PMS_P2;Temp;Humidity;BMP_temperature;BMP_pressure;BME280_temperature;BME280_humidity;BME280_pressure;Samples;Min_cycle;Max_cycle;Signal;HPM_P1;HPM_P2
2022/02/03 00:01:39;;;;;;;87.72;71.18;;;;;;;-0.50;100.00;100489.47;5062083;28;20106;-81
2022/02/03 00:04:13;;;;;;;90.20;73.13;;;;;;;-0.59;100.00;100488.50;5062380;28;20128;-80
2022/02/03 00:06:49;;;;;;;67.68;60.33;;;;;;;-0.71;100.00;100487.84;5058537;28;20128;-80
2022/02/03 00:09:54;;;;;;;76.57;68.63;;;;;;;-0.42;100.00;100488.75;5059059;28;20542;-81
2022/02/03 00:26:32;;;;;;;110.82;74.03;;;;;;;-1.08;100.00;100521.59;5049768;28;20523;-81
2022/02/03 00:29:00;;;;;;;69.85;60.45;;;;;;;-0.48;100.00;100518.88;5060629;28;20052;-81
2022/02/03 00:31:40;;;;;;;79.63;65.43;;;;;;;-0.48;100.00;100519.69;5061491;28;20118;-80
2022/02/03 00:34:16;;;;;;;63.90;57.90;;;;;;;-0.51;100.00;100517.34;5055523;28;20052;-81
2022/02/03 00:48:20;;;;;;;58.28;53.67;;;;;;;-0.28;100.00;100496.97;5052952;28;20052;-83
2022/02/03 00:50:51;;;;;;;55.45;50.80;;;;;;;-0.14;100.00;100502.72;5054768;28;20072;-80
2022/02/03 00:53:20;;;;;;;55.55;50.35;;;;;;;-0.06;100.00;100493.22;5062882;28;20049;-80
2022/02/03 00:55:55;;;;;;;59.50;54.47;;;;;;;-0.06;100.00;100497.59;5059879;28;20052;-81
2022/02/03 00:58:26;;;;;;;60.88;56.05;;;;;;;-0.04;100.00;100495.69;5064194;28;20381;-82
2022/02/03 01:00:59;;;;;;;62.33;57.28;;;;;;;-0.04;100.00;100495.69;5058579;28;20045;-81
2022/02/03 01:03:29;;;;;;;68.20;62.83;;;;;;;0.04;100.00;100510.66;5063386;28;20032;-82
2022/02/03 01:06:01;;;;;;;61.20;56.10;;;;;;;0.00;100.00;100512.72;5059649;28;20045;-80
2022/02/03 01:08:30;;;;;;;55.70;51.15;;;;;;;0.13;100.00;100513.22;5061125;28;20040;-80
2022/02/03 01:11:06;;;;;;;58.20;52.95;;;;;;;0.02;100.00;100512.56;5058046;28;20114;-80
2022/02/03 01:13:41;;;;;;;61.03;55.75;;;;;;;0.06;100.00;100500.84;5062153;28;20075;-81
2022/02/03 01:16:16;;;;;;;64.13;58.70;;;;;;;-0.06;100.00;100495.84;5056101;28;20083;-82
2022/02/03 01:21:47;;;;;;;58.60;53.80;;;;;;;-0.01;100.00;100503.22;5053308;28;20139;-81
2022/02/03 01:36:46;;;;;;;63.22;56.88;;;;;;;-0.25;100.00;100522.78;5047401;28;20063;-80
2022/02/03 01:43:41;;;;;;;62.05;56.60;;;;;;;-0.12;100.00;100529.50;5028811;28;20055;-82
2022/02/03 01:46:13;;;;;;;68.97;63.30;;;;;;;-0.12;100.00;100532.09;5060056;28;20052;-80
2022/02/03 01:49:02;;;;;;;64.75;58.63;;;;;;;-0.07;100.00;100537.72;5061506;28;20543;-80
2022/02/03 01:51:41;;;;;;;57.30;51.65;;;;;;;-0.02;100.00;100549.41;5048840;28;20408;-80
2022/02/03 01:54:10;;;;;;;61.90;55.97;;;;;;;-0.16;100.00;100551.63;5045358;28;20136;-80
2022/02/03 01:56:40;;;;;;;84.00;70.53;;;;;;;-0.41;100.00;100548.66;5054934;28;20053;-80
2022/02/03 01:59:21;;;;;;;65.35;59.60;;;;;;;-0.28;100.00;100556.19;5056524;28;20083;-81
2022/02/03 02:01:50;;;;;;;53.67;48.65;;;;;;;-0.24;100.00;100563.59;5062744;28;20079;-80
2022/02/03 02:04:35;;;;;;;60.50;54.50;;;;;;;-0.33;100.00;100554.00;5061151;28;20052;-82
2022/02/03 02:07:20;;;;;;;62.60;56.95;;;;;;;-0.34;100.00;100551.53;5063753;28;20040;-81
2022/02/03 02:10:10;;;;;;;59.28;53.35;;;;;;;-0.30;100.00;100545.91;5043951;28;20045;-81
2022/02/03 02:12:56;;;;;;;57.80;52.30;;;;;;;-0.34;100.00;100554.13;5064718;28;20040;-82
2022/02/03 02:18:35;;;;;;;57.40;51.95;;;;;;;-0.39;100.00;100553.72;5049874;28;20052;-80
2022/02/03 02:38:27;;;;;;;62.90;57.53;;;;;;;-0.49;100.00;100587.66;5063104;28;20519;-81
2022/02/03 02:43:58;;;;;;;;;;;;;;;-0.46;100.00;100593.41;5066357;28;20056;-82
2022/02/03 02:46:35;;;;;;;56.45;50.88;;;;;;;-0.60;100.00;100603.47;5059125;28;19928;-82
2022/02/03 02:49:21;;;;;;;61.85;55.75;;;;;;;-0.66;100.00;100604.81;5066460;28;20045;-80
2022/02/03 02:51:53;;;;;;;60.35;54.22;;;;;;;-0.94;100.00;100603.78;5062504;28;20474;-81
2022/02/03 02:54:46;;;;;;;56.95;51.58;;;;;;;-0.71;100.00;100617.44;5061752;28;20061;-80
2022/02/03 02:57:42;;;;;;;59.65;53.55;;;;;;;-0.72;100.00;100621.00;5065855;28;20163;-82
2022/02/03 03:03:20;;;;;;;63.60;56.97;;;;;;;-0.89;100.00;100622.47;5086174;22;20437;-83
2022/02/03 03:31:30;;;;;;;68.80;62.53;;;;;;;-1.23;100.00;100658.47;5037003;28;20052;-82
2022/02/03 03:34:10;;;;;;;59.17;52.83;;;;;;;-1.43;100.00;100658.34;5034306;28;20069;-80
2022/02/03 03:36:42;;;;;;;59.47;53.42;;;;;;;-1.01;100.00;100668.69;5030864;28;20565;-80
2022/02/03 03:39:12;;;;;;;55.03;49.28;;;;;;;-0.85;100.00;100673.41;5024898;28;20056;-81
2022/02/03 03:41:45;;;;;;;69.45;62.47;;;;;;;-0.90;100.00;100680.00;5040418;28;20064;-83
2022/02/03 03:44:16;;;;;;;63.78;57.33;;;;;;;-1.04;100.00;100681.16;5031668;28;20034;-83
2022/02/03 03:46:48;;;;;;;67.72;60.97;;;;;;;-1.06;100.00;100676.09;5035992;28;20103;-82
2022/02/03 03:49:31;;;;;;;58.55;52.50;;;;;;;-1.06;100.00;100690.88;5030559;28;20124;-81
2022/02/03 03:52:06;;;;;;;74.63;67.35;;;;;;;-1.16;100.00;100693.47;5037363;28;20049;-81
2022/02/03 03:54:57;;;;;;;76.22;67.97;;;;;;;-1.36;100.00;100679.53;5045972;28;20405;-81
2022/02/03 03:57:41;;;;;;;63.53;57.45;;;;;;;-1.11;100.00;100706.94;5030225;28;20050;-80
2022/02/03 04:00:36;;;;;;;58.95;52.60;;;;;;;-1.09;100.00;100705.03;5048223;28;20057;-81
2022/02/03 04:35:59;;;;;;;71.32;64.45;;;;;;;-1.29;100.00;100776.25;5033622;28;20049;-82
2022/02/03 04:38:36;;;;;;;65.75;58.92;;;;;;;-1.38;100.00;100783.06;5025921;28;20054;-80
2022/02/03 04:41:46;;;;;;;60.72;54.17;;;;;;;-1.67;100.00;100788.84;5025132;28;20038;-80
2022/02/03 04:59:47;;;;;;;69.10;59.13;;;;;;;-1.95;100.00;100802.47;5029891;28;20060;-81
2022/02/03 05:02:32;;;;;;;79.45;70.20;;;;;;;-1.85;100.00;100817.25;5027388;28;20133;-80
2022/02/03 05:05:20;;;;;;;58.38;52.00;;;;;;;-1.98;100.00;100823.53;5041157;28;20060;-80
2022/02/03 05:08:22;;;;;;;72.57;64.72;;;;;;;-1.95;100.00;100841.50;5022241;28;20054;-81
2022/02/03 05:11:14;;;;;;;75.18;67.07;;;;;;;-2.00;100.00;100848.84;5026144;28;20052;-81
2022/02/03 05:14:19;;;;;;;;;;;;;;;-1.81;100.00;100853.44;5035285;28;20045;-80
2022/02/03 05:17:17;;;;;;;62.75;55.75;;;;;;;-1.89;100.00;100861.84;5035281;28;20434;-80
2022/02/03 05:20:20;;;;;;;61.05;51.83;;;;;;;-1.75;100.00;100868.59;5037736;28;20061;-81
2022/02/03 05:23:30;;;;;;;55.55;49.90;;;;;;;-1.86;100.00;100878.06;5034066;28;20136;-81
2022/02/03 05:26:28;;;;;;;61.30;53.20;;;;;;;-1.76;100.00;100877.31;5034950;28;20042;-81
2022/02/03 05:32:59;;;;;;;58.88;52.78;;;;;;;-2.50;100.00;100901.28;5028918;28;20057;-80
2022/02/03 05:45:56;;;;;;;67.35;60.40;;;;;;;-3.14;100.00;100960.69;5043421;27;20420;-80
2022/02/03 05:48:51;;;;;;;78.68;70.72;;;;;;;-2.77;100.00;100966.59;5054839;28;20055;-80
2022/02/03 05:54:57;;;;;;;62.50;55.72;;;;;;;-2.44;100.00;100967.63;5053827;28;20063;-80
2022/02/03 06:03:19;;;;;;;79.90;69.00;;;;;;;-1.97;100.00;100983.97;5047600;28;20103;-79
2022/02/03 06:05:57;;;;;;;104.75;86.53;;;;;;;-2.57;100.00;100993.75;5049169;28;20080;-80
2022/02/03 06:08:35;;;;;;;145.05;82.57;;;;;;;-2.56;100.00;101005.78;5049095;28;20112;-82
2022/02/03 06:13:52;;;;;;;98.10;72.32;;;;;;;-2.50;100.00;101007.94;5050127;28;20055;-84
2022/02/03 06:16:36;;;;;;;107.82;72.93;;;;;;;-2.52;100.00;101020.22;5049933;28;20053;-79
2022/02/03 06:21:55;;;;;;;81.00;71.10;;;;;;;-2.17;100.00;101014.97;5050001;28;20056;-79
2022/02/03 06:24:34;;;;;;;86.90;74.45;;;;;;;-2.12;100.00;101012.88;5050628;28;20042;-80
2022/02/03 06:29:51;;;;;;;84.63;70.70;;;;;;;-1.51;100.00;101028.13;5049928;28;20049;-79
2022/02/03 06:32:18;;;;;;;74.57;66.72;;;;;;;-0.98;100.00;101035.25;5049814;28;20123;-80
2022/02/03 06:34:46;;;;;;;81.40;71.53;;;;;;;-0.97;100.00;101036.91;5047658;28;20115;-82
2022/02/03 06:37:12;;;;;;;80.50;71.95;;;;;;;-1.06;100.00;101033.28;5049977;28;20126;-83
2022/02/03 06:39:39;;;;;;;79.70;71.93;;;;;;;-0.57;100.00;101034.50;5050512;28;20459;-82
2022/02/03 06:42:08;;;;;;;88.78;79.32;;;;;;;-0.78;100.00;101044.09;5049908;28;20107;-79
2022/02/03 06:44:39;;;;;;;144.38;93.85;;;;;;;-0.25;100.00;101044.88;5049990;28;20393;-79
2022/02/03 06:47:14;;;;;;;88.07;79.13;;;;;;;-0.21;100.00;101042.03;5045637;28;20049;-80
2022/02/03 06:49:50;;;;;;;80.93;72.55;;;;;;;0.01;100.00;101041.88;5043634;28;20053;-79
2022/02/03 06:52:24;;;;;;;87.07;78.13;;;;;;;0.03;100.00;101046.97;5047452;28;20049;-81
2022/02/03 06:55:05;;;;;;;80.93;73.03;;;;;;;0.18;100.00;101045.66;5041036;28;20128;-81
2022/02/03 06:57:37;;;;;;;75.60;68.28;;;;;;;0.81;100.00;101053.34;5031914;28;20049;-79
2022/02/03 07:00:10;;;;;;;73.07;65.50;;;;;;;1.30;100.00;101051.59;5035925;28;20077;-82
2022/02/03 07:02:41;;;;;;;68.40;62.00;;;;;;;0.65;100.00;101056.47;5027225;28;20103;-80
2022/02/03 07:05:08;;;;;;;81.13;73.07;;;;;;;2.12;100.00;101058.97;5035885;28;20144;-82
2022/02/03 07:07:40;;;;;;;70.03;63.88;;;;;;;0.91;100.00;101060.25;5036127;28;20049;-79
2022/02/03 07:10:07;;;;;;;72.53;66.55;;;;;;;1.56;100.00;101075.44;5035814;28;20053;-81
2022/02/03 07:12:34;;;;;;;73.55;67.68;;;;;;;1.82;100.00;101073.09;5029918;28;20398;-82
2022/02/03 07:15:03;;;;;;;72.25;66.18;;;;;;;1.09;100.00;101085.72;5035678;28;20115;-79
2022/02/03 07:17:30;;;;;;;67.40;61.70;;;;;;;0.89;100.00;101084.88;5036184;28;20054;-79
2022/02/03 07:20:01;;;;;;;72.18;65.88;;;;;;;2.52;100.00;101090.13;5035868;28;20055;-81
2022/02/03 07:22:28;;;;;;;70.72;64.43;;;;;;;2.81;100.00;101096.22;5035452;28;20054;-82
2022/02/03 07:24:56;;;;;;;69.68;63.45;;;;;;;3.62;100.00;101086.53;5032705;28;20053;-77
2022/02/03 07:27:24;;;;;;;68.35;62.85;;;;;;;3.82;100.00;101076.69;5031653;28;20050;-81
2022/02/03 07:29:52;;;;;;;62.47;57.33;;;;;;;3.70;100.00;101075.28;5035206;28;20050;-81
2022/02/03 07:32:21;;;;;;;71.95;66.18;;;;;;;4.74;100.00;101080.47;5034662;28;20103;-81
2022/02/03 07:34:50;;;;;;;62.05;57.00;;;;;;;3.00;100.00;101080.38;5022379;28;20056;-81
2022/02/03 07:37:17;;;;;;;64.80;59.38;;;;;;;1.89;100.00;101076.78;5015988;28;20053;-78
2022/02/03 07:39:44;;;;;;;72.30;66.65;;;;;;;3.90;100.00;101084.66;5014996;28;20132;-78
2022/02/03 07:42:13;;;;;;;69.28;63.85;;;;;;;3.79;100.00;101089.31;5016329;28;20133;-78
2022/02/03 07:44:39;;;;;;;65.47;59.67;;;;;;;0.86;100.00;101096.44;5016062;28;20054;-81
2022/02/03 07:47:07;;;;;;;65.72;60.20;;;;;;;3.51;100.00;101093.81;5015215;28;20045;-79
2022/02/03 07:49:34;;;;;;;62.50;57.35;;;;;;;3.78;100.00;101106.88;5009071;28;20057;-81
2022/02/03 07:52:01;;;;;;;63.90;58.75;;;;;;;2.18;100.00;101102.09;5015081;28;20054;-80
2022/02/03 07:54:29;;;;;;;66.47;60.67;;;;;;;2.74;100.00;101104.66;5015030;28;20049;-78
2022/02/03 07:56:55;;;;;;;62.92;57.67;;;;;;;2.19;100.00;101107.22;5014145;28;20045;-82
2022/02/03 07:59:23;;;;;;;60.95;55.60;;;;;;;3.61;100.00;101115.59;5015389;28;20050;-82
2022/02/03 08:01:50;;;;;;;62.50;57.13;;;;;;;3.28;100.00;101120.53;5015430;28;20080;-80
2022/02/03 08:04:21;;;;;;;60.63;55.70;;;;;;;3.27;100.00;101116.25;5015179;28;20103;-81
2022/02/03 08:06:48;;;;;;;65.32;59.80;;;;;;;3.89;100.00;101122.41;5014428;28;20046;-78
2022/02/03 08:09:22;;;;;;;64.32;58.92;;;;;;;2.54;100.00;101124.06;5015716;28;20050;-80
2022/02/03 08:11:51;;;;;;;61.08;55.63;;;;;;;2.94;100.00;101129.03;5015360;28;20054;-81
2022/02/03 08:14:21;;;;;;;55.45;51.05;;;;;;;2.97;100.00;101125.28;5014846;28;20480;-81
2022/02/03 08:16:53;;;;;;;59.72;54.92;;;;;;;3.42;100.00;101137.59;5010862;28;20078;-80
2022/02/03 08:19:25;;;;;;;63.85;58.45;;;;;;;3.02;100.00;101136.16;5014431;28;20347;-79
2022/02/03 08:21:59;;;;;;;68.15;62.75;;;;;;;3.96;100.00;101143.63;5015182;28;20041;-78
2022/02/03 08:24:32;;;;;;;66.93;61.65;;;;;;;3.49;100.00;101137.81;5015499;28;20054;-80
2022/02/03 08:27:25;;;;;;;;;;;;;;;3.26;100.00;101137.41;5015173;28;20054;-81
2022/02/03 08:32:42;;;;;;;65.15;59.85;;;;;;;2.52;100.00;101149.63;5011762;28;20048;-82
2022/02/03 08:35:20;;;;;;;66.95;61.45;;;;;;;4.51;100.00;101153.91;5014494;28;20141;-81
2022/02/03 08:37:59;;;;;;;65.10;59.65;;;;;;;3.45;100.00;101158.31;5014091;28;20107;-80
2022/02/03 08:40:30;;;;;;;61.42;56.35;;;;;;;2.27;100.00;101161.56;5014046;28;20486;-82
2022/02/03 08:42:57;;;;;;;60.42;54.90;;;;;;;2.97;100.00;101167.28;5013810;28;20120;-81
2022/02/03 08:45:25;;;;;;;62.63;57.47;;;;;;;3.59;100.00;101186.66;5014096;28;20050;-78
2022/02/03 08:47:53;;;;;;;60.22;55.08;;;;;;;3.76;100.00;101179.78;5014670;28;20058;-81
2022/02/03 08:50:21;;;;;;;64.60;59.10;;;;;;;3.77;100.00;101188.47;5014991;28;20540;-77
2022/02/03 08:52:57;;;;;;;64.18;58.55;;;;;;;3.27;100.00;101184.53;5014681;28;20046;-80
2022/02/03 08:55:30;;;;;;;65.00;58.90;;;;;;;3.99;100.00;101195.91;5013644;28;20050;-78
2022/02/03 08:58:25;;;;;;;61.28;56.13;;;;;;;3.33;100.00;101186.56;5009281;28;20461;-78
2022/02/03 09:39:23;;;;;;;64.07;57.95;;;;;;;2.86;100.00;101206.81;5016390;28;20393;-80
2022/02/03 09:50:00;;;;;;;67.03;60.70;;;;;;;2.88;100.00;101212.75;5032830;28;20053;-81
2022/02/03 09:53:52;;;;;;;67.88;62.20;;;;;;;3.67;100.00;101204.31;4992542;28;20595;-83
2022/02/03 09:59:06;;;;;;;67.03;61.05;;;;;;;3.07;100.00;101204.78;5010226;28;20053;-79
2022/02/03 10:01:35;;;;;;;64.90;59.40;;;;;;;3.54;100.00;101212.56;5030964;28;20513;-81
2022/02/03 10:04:11;;;;;;;60.03;54.97;;;;;;;3.58;100.00;101213.09;5032899;28;20056;-84
2022/02/03 10:06:43;;;;;;;57.22;52.35;;;;;;;3.80;100.00;101215.28;5032671;28;20077;-81
2022/02/03 10:09:11;;;;;;;56.83;51.90;;;;;;;3.54;100.00;101212.56;5034473;28;20065;-79
2022/02/03 10:11:38;;;;;;;58.53;53.33;;;;;;;4.27;100.00;101217.69;5033047;28;20104;-82
2022/02/03 10:14:05;;;;;;;59.92;54.70;;;;;;;3.96;100.00;101219.03;5028608;28;20049;-82
2022/02/03 10:16:36;;;;;;;55.65;50.63;;;;;;;3.38;100.00;101225.50;5033025;28;20049;-79
2022/02/03 10:19:05;;;;;;;56.38;51.47;;;;;;;3.26;100.00;101235.38;5031524;28;20052;-79
2022/02/03 10:21:32;;;;;;;52.70;48.30;;;;;;;3.29;100.00;101229.00;5032728;28;20057;-78
2022/02/03 10:24:01;;;;;;;57.67;52.15;;;;;;;3.61;100.00;101231.19;5032908;28;20103;-79
2022/02/03 10:26:34;;;;;;;59.45;54.22;;;;;;;3.88;100.00;101239.00;5032202;28;20088;-80
2022/02/03 10:29:02;;;;;;;57.60;52.50;;;;;;;3.99;100.00;101243.22;5032671;28;20050;-81
2022/02/03 10:31:35;;;;;;;60.15;54.85;;;;;;;5.21;100.00;101239.81;5035445;28;20054;-80
2022/02/03 10:34:07;;;;;;;58.63;53.42;;;;;;;4.59;100.00;101240.75;5035838;28;20049;-82
2022/02/03 10:36:43;;;;;;;56.88;51.85;;;;;;;4.58;100.00;101246.19;5036287;28;20045;-79
2022/02/03 10:39:25;;;;;;;57.15;52.15;;;;;;;4.77;100.00;101230.16;5037091;28;20057;-82
2022/02/03 10:42:15;;;;;;;62.97;57.45;;;;;;;4.89;100.00;101236.00;5036156;28;20057;-78
2022/02/03 10:45:04;;;;;;;60.13;54.60;;;;;;;4.96;100.00;101228.31;5035876;28;20054;-81
2022/02/03 10:50:51;;;;;;;60.67;55.40;;;;;;;7.63;100.00;101234.75;5011824;28;20056;-81
2022/02/03 10:53:43;;;;;;;62.75;57.50;;;;;;;8.55;100.00;101237.41;5036988;28;20127;-79
2022/02/03 10:56:20;;;;;;;61.58;56.17;;;;;;;9.63;100.00;101238.66;5035335;28;20512;-79
2022/02/03 10:59:08;;;;;;;61.20;56.45;;;;;;;9.08;100.00;101237.38;5036815;28;20141;-82
2022/02/03 11:02:05;;;;;;;60.50;55.75;;;;;;;9.11;100.00;101240.47;5036468;28;20046;-80
2022/02/03 11:05:01;;;;;;;64.22;58.65;;;;;;;5.46;100.00;101236.25;5033014;28;20057;-81
2022/02/03 11:07:32;;;;;;;63.72;58.38;;;;;;;7.14;100.00;101237.63;5033584;28;20504;-77
2022/02/03 11:10:08;;;;;;;56.75;52.22;;;;;;;6.61;100.00;101249.63;5036762;28;20119;-81
2022/02/03 11:12:36;;;;;;;71.30;65.32;;;;;;;6.26;100.00;101248.13;5032634;28;20103;-83
2022/02/03 11:15:06;;;;;;;67.43;62.38;;;;;;;6.09;100.00;101240.22;5035799;28;20053;-83
2022/02/03 11:17:34;;;;;;;65.78;60.65;;;;;;;6.29;100.00;101251.25;5033207;28;20469;-81
2022/02/03 11:20:03;;;;;;;67.95;62.45;;;;;;;5.99;100.00;101251.91;5036266;28;20057;-81
2022/02/03 11:22:43;;;;;;;68.93;63.63;;;;;;;6.24;100.00;101247.50;5035353;28;20045;-81
2022/02/03 11:25:18;;;;;;;66.35;61.17;;;;;;;5.88;100.00;101239.84;5035623;28;20128;-80
2022/02/03 11:28:09;;;;;;;60.63;55.10;;;;;;;5.25;100.00;101243.75;5035056;28;20049;-82
2022/02/03 11:31:09;;;;;;;63.17;58.05;;;;;;;5.79;100.00;101241.63;5035235;28;20196;-82
2022/02/03 11:37:09;;;;;;;61.65;55.55;;;;;;;5.23;100.00;101238.66;5014788;28;20134;-79
2022/02/03 11:42:38;;;;;;;64.15;58.40;;;;;;;5.21;100.00;101242.44;5033810;28;20153;-80
2022/02/03 11:45:40;;;;;;;59.60;54.50;;;;;;;5.44;100.00;101237.41;5033907;28;20130;-81
2022/02/03 11:48:27;;;;;;;63.03;57.83;;;;;;;5.52;100.00;101245.34;5032149;28;20412;-80
2022/02/03 11:54:06;;;;;;;62.67;57.10;;;;;;;4.64;100.00;101232.41;5036271;28;20521;-82
2022/02/03 11:59:52;;;;;;;64.45;58.65;;;;;;;5.19;100.00;101239.94;5033787;28;20050;-81
2022/02/03 12:02:36;;;;;;;64.35;58.30;;;;;;;5.18;100.00;101240.94;5035560;28;20049;-78
2022/02/03 12:05:22;;;;;;;62.78;57.15;;;;;;;5.51;100.00;101234.00;5035014;28;20049;-79
2022/02/03 12:11:31;;;;;;;59.80;54.28;;;;;;;5.28;100.00;101232.91;5027873;28;20060;-79
2022/02/03 12:19:38;;;;;;;63.55;57.63;;;;;;;5.05;100.00;101244.00;5030368;28;20199;-82
2022/02/03 12:22:12;;;;;;;60.58;54.80;;;;;;;5.48;100.00;101236.13;5034332;28;20559;-79
2022/02/03 12:24:58;;;;;;;59.13;54.08;;;;;;;5.35;100.00;101238.38;5034104;28;20465;-79
2022/02/03 12:27:34;;;;;;;60.08;54.28;;;;;;;5.18;100.00;101240.13;5033983;28;20072;-81
2022/02/03 12:30:05;;;;;;;61.38;55.85;;;;;;;5.08;100.00;101250.75;5032958;28;20059;-79
2022/02/03 12:33:17;;;;;;;66.93;60.75;;;;;;;5.00;100.00;101248.09;5034704;28;20120;-80
2022/02/03 12:38:23;;;;;;;69.60;63.85;;;;;;;6.81;100.00;101247.44;5033339;28;20465;-82
2022/02/03 12:40:56;;;;;;;66.70;61.20;;;;;;;7.33;100.00;101242.50;5032641;28;20042;-78
2022/02/03 12:43:32;;;;;;;69.72;64.13;;;;;;;6.36;100.00;101246.19;5033081;28;20049;-79
2022/02/03 12:46:02;;;;;;;66.82;61.45;;;;;;;6.13;100.00;101249.44;5033671;28;20111;-81
2022/02/03 12:48:30;;;;;;;63.58;57.97;;;;;;;5.61;100.00;101260.19;5030332;28;20057;-80
2022/02/03 12:50:58;;;;;;;60.95;56.03;;;;;;;5.88;100.00;101260.94;5033836;28;20111;-79
2022/02/03 12:53:32;;;;;;;60.67;55.30;;;;;;;6.19;100.00;101266.44;5033468;28;20049;-79
2022/02/03 12:56:02;;;;;;;60.13;55.03;;;;;;;5.97;100.00;101267.91;5033961;28;20053;-80
2022/02/03 12:58:38;;;;;;;59.17;54.45;;;;;;;5.74;100.00;101267.63;5033657;28;20132;-81
2022/02/03 13:01:10;;;;;;;59.75;54.75;;;;;;;5.59;100.00;101263.97;5034018;28;20114;-81
2022/02/03 13:03:39;;;;;;;61.42;56.42;;;;;;;5.89;100.00;101271.31;5040050;28;20049;-82
2022/02/03 13:06:09;;;;;;;62.03;57.15;;;;;;;5.11;100.00;101274.13;5033725;28;20060;-81
2022/02/03 13:08:41;;;;;;;60.42;55.63;;;;;;;4.91;100.00;101270.09;5034703;28;20077;-81
2022/02/03 13:11:15;;;;;;;61.55;56.05;;;;;;;5.68;100.00;101270.91;5034202;28;20057;-81
2022/02/03 13:13:54;;;;;;;63.60;58.08;;;;;;;5.32;100.00;101275.56;5033827;28;20060;-80
2022/02/03 13:16:22;;;;;;;60.92;55.88;;;;;;;5.43;100.00;101281.38;5030494;28;20111;-79
2022/02/03 13:19:01;;;;;;;59.97;55.20;;;;;;;5.34;100.00;101279.69;5033604;28;20137;-81
2022/02/03 13:21:37;;;;;;;63.95;58.15;;;;;;;5.02;100.00;101278.56;5031570;28;20374;-82
2022/02/03 13:24:24;;;;;;;60.25;55.22;;;;;;;5.18;100.00;101277.81;5033435;28;20046;-82
2022/02/03 13:26:52;;;;;;;59.85;54.65;;;;;;;5.21;100.00;101272.22;5032658;28;20087;-82
2022/02/03 13:29:27;;;;;;;60.08;55.13;;;;;;;6.01;100.00;101277.13;5032723;28;20052;-81
2022/02/03 13:31:57;;;;;;;62.40;57.35;;;;;;;6.25;100.00;101272.88;5033399;28;20049;-81
2022/02/03 13:34:33;;;;;;;60.13;55.22;;;;;;;5.82;100.00;101275.56;5033554;28;20084;-81
2022/02/03 13:37:15;;;;;;;61.05;55.50;;;;;;;5.89;100.00;101273.94;5032905;28;20498;-81
2022/02/03 13:39:47;;;;;;;59.55;54.63;;;;;;;6.53;100.00;101271.53;5033166;28;20473;-80
2022/02/03 13:42:15;;;;;;;61.60;56.47;;;;;;;6.27;100.00;101270.91;5030930;28;21293;-82
2022/02/03 13:44:43;;;;;;;59.38;54.33;;;;;;;5.33;100.00;101259.59;5033226;28;20060;-85
2022/02/03 13:47:24;;;;;;;56.00;51.50;;;;;;;6.78;100.00;101275.00;5033272;28;20478;-84
2022/02/03 13:50:02;;;;;;;57.47;52.78;;;;;;;7.85;100.00;101264.03;5035375;28;20080;-84
2022/02/03 13:52:36;;;;;;;58.55;54.10;;;;;;;8.30;100.00;101265.88;5033903;28;20049;-83
2022/02/03 14:15:19;;;;;;;56.67;52.58;;;;;;;7.11;100.00;101269.66;5037608;28;20064;-83
2022/02/03 14:18:12;;;;;;;56.70;52.85;;;;;;;6.59;100.00;101277.97;5037116;28;20132;-83
2022/02/03 14:20:44;;;;;;;58.13;53.88;;;;;;;6.71;100.00;101276.66;5034700;28;20498;-83
2022/02/03 14:28:57;;;;;;;60.38;56.10;;;;;;;5.85;100.00;101269.16;5015834;28;20141;-81
2022/02/03 14:31:24;;;;;;;55.35;51.38;;;;;;;6.67;100.00;101271.88;5027707;28;20412;-81
2022/02/03 14:33:52;;;;;;;57.15;53.25;;;;;;;6.07;100.00;101268.56;5037275;28;20064;-82
2022/02/03 14:36:22;;;;;;;61.30;56.78;;;;;;;6.20;100.00;101273.34;5037510;28;20418;-82
2022/02/03 14:38:56;;;;;;;56.53;52.58;;;;;;;5.42;100.00;101271.81;5037172;28;20128;-82
2022/02/03 14:41:29;;;;;;;58.08;53.88;;;;;;;5.80;100.00;101274.91;5036879;28;20119;-81
2022/02/03 14:43:59;;;;;;;57.38;52.88;;;;;;;5.23;100.00;101272.91;5036697;28;20450;-82
2022/02/03 14:46:26;;;;;;;60.47;55.45;;;;;;;5.00;100.00;101277.06;5036735;28;20466;-82
2022/02/03 14:48:53;;;;;;;57.45;53.20;;;;;;;4.92;100.00;101274.34;5036631;28;20060;-82
2022/02/03 14:51:24;;;;;;;58.70;54.05;;;;;;;5.12;100.00;101277.63;5036826;28;20103;-80
2022/02/03 14:53:56;;;;;;;57.80;52.80;;;;;;;5.15;100.00;101274.66;5037333;28;20069;-82
2022/02/03 14:59:17;;;;;;;59.25;54.40;;;;;;;4.95;100.00;101274.03;5012940;28;20045;-80
2022/02/03 15:01:44;;;;;;;55.63;51.17;;;;;;;4.95;100.00;101282.75;5036959;28;20046;-82
2022/02/03 15:04:14;;;;;;;56.97;52.78;;;;;;;4.67;100.00;101282.09;5036739;28;20437;-83
2022/02/03 15:06:45;;;;;;;60.85;55.90;;;;;;;4.78;100.00;101288.91;5036929;28;20117;-84
2022/02/03 15:09:19;;;;;;;57.30;52.45;;;;;;;4.64;100.00;101290.28;5037485;28;20386;-82
2022/02/03 15:12:04;;;;;;;58.13;53.35;;;;;;;4.56;100.00;101284.97;5037234;28;20053;-82
2022/02/03 15:14:33;;;;;;;58.60;53.83;;;;;;;4.69;100.00;101288.03;5036310;28;20049;-82
2022/02/03 15:16:59;;;;;;;55.85;51.33;;;;;;;4.56;100.00;101283.16;5036520;28;20037;-80
2022/02/03 15:19:26;;;;;;;55.28;51.17;;;;;;;4.45;100.00;101293.09;5032197;28;20060;-81
2022/02/03 15:21:53;;;;;;;56.50;52.28;;;;;;;4.41;100.00;101295.19;5036491;28;20132;-82
2022/02/03 15:24:20;;;;;;;56.97;52.60;;;;;;;4.34;100.00;101294.16;5037014;28;20130;-82
2022/02/03 15:26:47;;;;;;;54.95;50.38;;;;;;;4.01;100.00;101295.66;5036266;28;20107;-82
2022/02/03 15:29:14;;;;;;;59.83;54.10;;;;;;;3.99;100.00;101303.66;5036133;28;20057;-81
2022/02/03 15:31:42;;;;;;;59.22;54.03;;;;;;;4.09;100.00;101306.25;5036335;28;20144;-82
2022/02/03 15:34:12;;;;;;;55.03;50.35;;;;;;;3.86;100.00;101303.22;5035969;28;20072;-83
2022/02/03 15:36:46;;;;;;;53.63;49.40;;;;;;;3.93;100.00;101306.06;5036139;28;20045;-81
2022/02/03 15:39:19;;;;;;;54.55;50.25;;;;;;;3.88;100.00;101312.59;5035855;28;20053;-82
2022/02/03 15:41:47;;;;;;;58.65;53.88;;;;;;;3.93;100.00;101319.22;5036516;28;20049;-82
2022/02/03 15:44:14;;;;;;;55.00;50.33;;;;;;;3.83;100.00;101320.09;5035671;28;20063;-81
2022/02/03 15:46:56;;;;;;;56.60;51.30;;;;;;;3.74;100.00;101325.41;5036196;28;20060;-82
2022/02/03 15:49:42;;;;;;;55.40;50.42;;;;;;;3.76;100.00;101336.59;5035438;28;20068;-82
2022/02/03 15:58:23;;;;;;;88.35;68.75;;;;;;;3.63;100.00;101334.28;5032090;28;20052;-82
2022/02/03 16:01:14;;;;;;;60.05;54.50;;;;;;;3.76;100.00;101339.25;5034430;28;20516;-82
2022/02/03 16:03:49;;;;;;;71.22;63.53;;;;;;;3.51;100.00;101338.94;5025899;28;20056;-82
2022/02/03 16:17:14;;;;;;;75.53;64.22;;;;;;;2.63;100.00;101367.16;5035670;28;20509;-81
2022/02/03 16:19:51;;;;;;;72.53;63.58;;;;;;;2.46;100.00;101371.28;5035324;28;20118;-82
2022/02/03 16:22:26;;;;;;;83.28;74.43;;;;;;;1.79;100.00;101377.22;5035650;28;20449;-80
2022/02/03 16:24:58;;;;;;;92.75;79.30;;;;;;;2.04;100.00;101365.41;5035425;28;20872;-81
2022/02/03 16:52:23;;;;;;;119.57;80.68;;;;;;;1.66;100.00;101395.75;5034551;28;20084;-80
2022/02/03 16:54:51;;;;;;;125.75;88.40;;;;;;;1.66;100.00;101397.53;5016324;28;20112;-80
2022/02/03 16:57:22;;;;;;;117.22;81.25;;;;;;;1.52;100.00;101410.03;5035320;28;20053;-80
2022/02/03 16:59:54;;;;;;;122.70;88.95;;;;;;;1.66;100.00;101406.22;5035584;28;20466;-81
2022/02/03 17:02:23;;;;;;;;;;;;;;;1.59;100.00;101394.63;5035567;28;20469;-80
2022/02/03 17:04:50;;;;;;;103.63;82.35;;;;;;;1.53;100.00;101405.63;5035004;28;19990;-81
2022/02/03 17:07:18;;;;;;;99.50;81.68;;;;;;;1.55;100.00;101408.94;5034682;28;20050;-81
2022/02/03 17:09:45;;;;;;;89.07;74.40;;;;;;;1.47;100.00;101408.75;5034009;28;20437;-80
2022/02/03 17:12:12;;;;;;;88.60;74.43;;;;;;;1.57;100.00;101404.38;5034846;28;20398;-81